createdAt,value
2019-05-30T19:38:04.367Z,3.60
2019-05-30T19:40:34.050Z,3.05
2019-05-30T19:43:04.816Z,3.10
2019-05-30T19:45:36.102Z,3.05
2019-05-30T19:54:46.674Z,4.60
2019-05-30T19:57:16.473Z,5.15
2019-05-30T19:59:46.619Z,4.92
2019-05-30T20:02:16.245Z,3.83
2019-05-30T20:04:45.991Z,4.47
2019-05-30T20:07:15.706Z,5.33
2019-05-30T20:10:00.213Z,5.12
2019-05-30T20:12:16.886Z,4.95
2019-05-30T20:14:47.102Z,5.85
2019-05-30T20:17:16.759Z,5.87
2019-05-30T20:19:46.415Z,5.12
2019-05-30T20:22:16.198Z,5.23
2019-05-30T20:24:45.973Z,5.77
2019-05-30T20:27:15.818Z,6.07
2019-05-30T20:29:46.673Z,5.87
2019-05-30T20:32:16.394Z,6.03
2019-05-30T20:34:47.121Z,6.17
2019-05-30T20:39:47.220Z,4.83
2019-05-30T20:42:19.443Z,5.87
2019-05-30T20:44:48.590Z,5.60
2019-05-30T20:47:18.368Z,5.50
2019-05-30T20:49:48.767Z,5.23
2019-05-30T20:52:20.642Z,5.58
2019-05-30T20:54:50.508Z,5.35
2019-05-30T20:57:20.242Z,5.47
2019-05-30T20:59:50.142Z,4.62
2019-05-30T21:02:20.197Z,5.72
2019-05-30T21:04:51.717Z,6.42
2019-05-30T21:07:22.370Z,5.50
2019-05-30T21:09:53.357Z,5.92
2019-05-30T21:12:36.876Z,5.97
2019-05-30T21:14:59.090Z,5.35
2019-05-30T21:17:30.280Z,5.90
2019-05-30T21:20:00.080Z,5.92
2019-05-30T21:22:31.414Z,5.37
2019-05-30T21:25:01.298Z,5.85
2019-05-30T21:27:30.997Z,5.87
2019-05-30T21:30:00.624Z,6.45
2019-05-30T21:32:30.440Z,5.33
2019-05-30T21:35:00.481Z,6.27
2019-05-30T21:37:30.412Z,6.65
2019-05-30T21:40:00.394Z,5.90
2019-05-30T21:42:31.120Z,6.65
2019-05-30T21:47:30.845Z,5.80
2019-05-30T21:50:01.070Z,5.83
2019-05-30T21:52:32.251Z,6.10
2019-05-30T21:55:03.409Z,6.37
2019-05-30T21:57:33.490Z,5.90
2019-05-30T22:00:13.359Z,5.90
2019-05-30T22:02:48.591Z,6.37
2019-05-30T22:05:19.362Z,6.90
2019-05-30T22:07:49.237Z,6.13
2019-05-30T22:10:18.979Z,7.00
2019-05-30T22:12:49.700Z,7.30
2019-05-30T22:15:19.439Z,6.30
2019-05-30T22:17:49.897Z,6.55
2019-05-30T22:20:19.640Z,6.15
2019-05-30T22:22:50.217Z,6.58
2019-05-30T22:25:19.978Z,6.17
2019-05-30T22:27:50.568Z,7.00
2019-05-30T22:30:20.602Z,7.65
2019-05-30T22:32:50.766Z,7.53
2019-05-30T22:35:20.640Z,6.95
2019-05-30T22:37:51.017Z,7.47
2019-05-30T22:40:20.724Z,7.60
2019-05-30T22:42:52.264Z,7.45
2019-05-30T22:45:22.059Z,7.53
2019-05-30T22:47:52.527Z,7.80
2019-05-30T22:50:22.180Z,7.95
2019-05-30T22:52:52.969Z,7.57
2019-05-30T22:57:52.524Z,7.75
2019-05-30T23:02:51.920Z,7.78
2019-05-30T23:05:21.705Z,8.43
2019-05-30T23:07:51.478Z,8.55
2019-05-30T23:10:21.227Z,8.37
2019-05-30T23:12:52.285Z,8.13
2019-05-30T23:15:22.002Z,7.95
2019-05-30T23:17:52.801Z,8.00
2019-05-30T23:20:22.594Z,8.28
2019-05-30T23:22:53.028Z,9.20
2019-05-30T23:25:23.842Z,6.97
2019-05-30T23:30:23.238Z,9.03
2019-05-30T23:32:54.012Z,8.20
2019-05-30T23:35:23.882Z,8.25
2019-05-30T23:37:54.608Z,8.35
2019-05-30T23:40:24.307Z,8.50
2019-05-30T23:42:55.045Z,8.13
2019-05-30T23:47:53.600Z,9.18
2019-05-30T23:50:23.492Z,8.50
2019-05-30T23:52:54.094Z,9.20
2019-05-30T23:57:52.620Z,9.13
